createdAt,value
2023-01-25T00:04:48.554Z,1.91
2023-01-25T00:09:50.565Z,1.83
2023-01-25T00:14:51.250Z,1.90
2023-01-25T00:19:51.894Z,2.04
2023-01-25T00:24:54.908Z,2.11
2023-01-25T00:29:55.566Z,2.13
2023-01-25T00:34:56.658Z,2.10
2023-01-25T00:39:58.786Z,2.09
2023-01-25T00:44:59.421Z,2.07
2023-01-25T00:50:00.133Z,1.98
2023-01-25T00:55:02.152Z,1.93
2023-01-25T01:00:02.824Z,2.06
2023-01-25T01:05:03.571Z,2.05
2023-01-25T01:10:08.902Z,2.03
2023-01-25T01:15:10.686Z,1.99
2023-01-25T01:20:12.443Z,2.07
2023-01-25T01:25:14.696Z,2.14
2023-01-25T01:30:15.540Z,2.07
2023-01-25T01:35:16.417Z,2.12
2023-01-25T01:40:18.799Z,2.13
2023-01-25T01:45:52.079Z,1.99
2023-01-25T01:51:02.781Z,2.04
2023-01-25T01:56:09.577Z,2.09
2023-01-25T02:01:10.481Z,2.09
2023-01-25T02:06:15.696Z,2.02
2023-01-25T02:11:18.075Z,2.08
2023-01-25T02:16:29.507Z,2.02
2023-01-25T02:21:38.749Z,1.97
2023-01-25T02:26:41.459Z,1.91
2023-01-25T02:31:45.646Z,2.04
2023-01-25T02:36:46.577Z,2.04
2023-01-25T02:41:49.132Z,1.99
2023-01-25T02:46:50.331Z,1.97
2023-01-25T02:51:55.828Z,1.91
2023-01-25T02:56:58.460Z,1.89
2023-01-25T03:02:02.814Z,1.91
2023-01-25T03:07:04.983Z,1.85
2023-01-25T03:12:07.739Z,1.87
2023-01-25T03:17:08.583Z,1.92
2023-01-25T03:22:11.082Z,1.94
2023-01-25T03:27:14.273Z,1.96
2023-01-25T03:32:18.521Z,1.97
2023-01-25T03:37:19.513Z,1.99
2023-01-25T03:42:23.618Z,1.89
2023-01-25T03:47:29.240Z,1.86
2023-01-25T03:52:37.301Z,1.85
2023-01-25T03:57:39.696Z,1.89
2023-01-25T04:02:43.376Z,1.90
2023-01-25T04:07:47.978Z,1.92
2023-01-25T04:12:53.965Z,1.92
2023-01-25T04:17:56.245Z,1.83
2023-01-25T04:22:58.070Z,1.94
2023-01-25T04:28:07.016Z,1.94
2023-01-25T04:33:08.078Z,1.91
2023-01-25T04:38:08.876Z,1.79
2023-01-25T04:43:15.767Z,1.86
2023-01-25T04:48:17.888Z,1.85
2023-01-25T04:53:24.268Z,1.83
2023-01-25T04:58:27.222Z,1.86
2023-01-25T05:03:28.240Z,1.85
2023-01-25T05:08:29.073Z,1.85
2023-01-25T05:13:35.583Z,1.80
2023-01-25T05:19:02.379Z,1.85
2023-01-25T05:24:10.950Z,1.75
2023-01-25T05:29:14.057Z,1.78
2023-01-25T05:34:23.605Z,1.79
2023-01-25T05:39:24.911Z,1.76
2023-01-25T05:44:28.572Z,1.83
2023-01-25T05:49:29.311Z,1.77
2023-01-25T05:54:30.387Z,1.69
2023-01-25T05:59:38.887Z,1.74
2023-01-25T06:04:42.494Z,1.74
2023-01-25T06:09:44.248Z,1.64
2023-01-25T06:14:47.304Z,1.67
2023-01-25T06:19:47.977Z,1.73
2023-01-25T06:25:09.911Z,1.76
2023-01-25T06:30:12.869Z,1.73
2023-01-25T06:35:13.539Z,1.74
2023-01-25T06:40:14.565Z,1.76
2023-01-25T06:45:16.743Z,1.79
2023-01-25T06:50:17.506Z,1.49
2023-01-25T06:55:18.204Z,1.70
2023-01-25T07:00:20.930Z,1.67
2023-01-25T07:05:21.609Z,1.67
2023-01-25T07:10:22.354Z,1.48
2023-01-25T07:15:24.684Z,1.60
2023-01-25T07:20:25.379Z,1.64
2023-01-25T07:25:26.043Z,1.60
2023-01-25T07:30:28.091Z,1.65
2023-01-25T07:35:28.795Z,1.76
2023-01-25T07:40:29.569Z,1.78
2023-01-25T07:45:32.076Z,1.81
2023-01-25T07:50:32.804Z,1.85
2023-01-25T07:55:33.548Z,1.85
2023-01-25T08:00:35.752Z,1.92
2023-01-25T08:05:37.197Z,1.89
2023-01-25T08:10:39.266Z,1.89
2023-01-25T08:15:41.268Z,1.87
2023-01-25T08:20:41.929Z,1.97
2023-01-25T08:25:42.619Z,1.72
2023-01-25T08:30:56.479Z,1.76
2023-01-25T08:35:58.283Z,1.94
2023-01-25T08:41:06.010Z,1.71
2023-01-25T08:46:08.115Z,1.86
2023-01-25T08:51:10.041Z,1.70
2023-01-25T08:56:12.235Z,1.69
2023-01-25T09:01:16.586Z,1.47
2023-01-25T09:06:18.461Z,1.76
2023-01-25T09:11:21.345Z,1.98
2023-01-25T09:16:29.034Z,2.07
2023-01-25T09:21:30.690Z,2.06
2023-01-25T09:26:31.560Z,2.02
2023-01-25T09:31:34.586Z,1.61
2023-01-25T09:36:44.142Z,1.47
2023-01-25T09:42:14.572Z,1.52
2023-01-25T09:47:25.610Z,1.72
2023-01-25T09:52:50.838Z,1.67
2023-01-25T09:57:55.410Z,1.71
2023-01-25T10:03:01.665Z,1.74
2023-01-25T10:08:07.147Z,1.64
2023-01-25T10:13:12.496Z,1.51
2023-01-25T10:18:22.602Z,1.53
2023-01-25T10:23:42.122Z,1.58
2023-01-25T10:28:48.494Z,1.69
2023-01-25T10:33:50.592Z,1.59
2023-01-25T10:38:57.438Z,1.77
2023-01-25T10:44:12.593Z,1.98
2023-01-25T10:49:23.870Z,2.17
2023-01-25T10:54:25.207Z,2.05
2023-01-25T10:59:28.264Z,1.76
2023-01-25T11:04:35.956Z,2.16
2023-01-25T11:09:39.063Z,2.10
2023-01-25T11:14:39.772Z,2.25
2023-01-25T11:19:42.188Z,2.30
2023-01-25T11:24:42.990Z,2.34
2023-01-25T11:29:47.033Z,2.24
2023-01-25T11:34:50.143Z,2.20
2023-01-25T11:40:00.291Z,2.18
2023-01-25T11:45:36.970Z,1.97
2023-01-25T11:50:45.245Z,1.84
2023-01-25T11:55:53.898Z,1.77
2023-01-25T12:01:08.303Z,2.04
2023-01-25T12:06:17.431Z,2.12
2023-01-25T12:11:29.967Z,1.89
2023-01-25T12:16:44.710Z,2.01
2023-01-25T12:22:07.515Z,1.87
2023-01-25T12:27:20.445Z,1.92
2023-01-25T12:32:25.432Z,1.98
2023-01-25T12:37:33.835Z,1.93
2023-01-25T12:42:39.983Z,2.03
2023-01-25T12:47:45.187Z,2.17
2023-01-25T12:52:52.296Z,1.56
2023-01-25T12:58:00.987Z,1.81
2023-01-25T13:03:12.531Z,1.77
2023-01-25T13:08:31.634Z,1.89
2023-01-25T13:13:33.328Z,1.88
2023-01-25T13:18:41.477Z,2.09
2023-01-25T13:23:47.283Z,2.10
2023-01-25T13:28:49.367Z,2.15
2023-01-25T13:33:50.042Z,2.02
2023-01-25T13:38:52.119Z,2.18
2023-01-25T13:44:14.475Z,2.32
2023-01-25T13:49:23.793Z,2.35
2023-01-25T13:54:25.832Z,2.40
2023-01-25T13:59:28.592Z,2.26
2023-01-25T14:04:30.500Z,2.33
2023-01-25T14:09:32.522Z,2.31
2023-01-25T14:14:34.743Z,2.37
2023-01-25T14:19:38.363Z,2.37
2023-01-25T14:24:40.914Z,2.31
2023-01-25T14:29:42.387Z,2.31
2023-01-25T14:34:43.137Z,2.33
2023-01-25T14:39:46.603Z,2.23
2023-01-25T14:44:48.009Z,2.15
2023-01-25T14:49:48.675Z,2.18
2023-01-25T14:54:54.703Z,2.06
2023-01-25T14:59:57.040Z,1.92
2023-01-25T15:05:04.882Z,1.98
2023-01-25T15:10:22.953Z,1.94
2023-01-25T15:15:24.944Z,1.83
2023-01-25T15:20:37.422Z,1.97
2023-01-25T15:25:51.711Z,1.96
2023-01-25T15:30:53.195Z,1.76
2023-01-25T15:35:55.614Z,1.86
2023-01-25T15:41:01.376Z,1.76
2023-01-25T15:46:02.367Z,1.80
2023-01-25T15:51:03.143Z,1.77
2023-01-25T15:56:07.917Z,1.75
2023-01-25T16:01:09.247Z,1.78
2023-01-25T16:06:26.095Z,1.63
2023-01-25T16:11:28.819Z,1.68
2023-01-25T16:16:29.595Z,1.74
2023-01-25T16:21:30.943Z,1.72
2023-01-25T16:26:33.322Z,1.76
2023-01-25T16:31:34.272Z,1.80
2023-01-25T16:36:35.634Z,1.86
2023-01-25T16:41:38.057Z,1.88
2023-01-25T16:46:39.772Z,1.91
2023-01-25T16:51:41.061Z,1.90
2023-01-25T16:56:43.254Z,1.97
2023-01-25T17:01:44.435Z,1.92
2023-01-25T17:06:46.892Z,1.96
2023-01-25T17:11:48.953Z,1.97
2023-01-25T17:16:51.620Z,2.55
2023-01-25T17:21:52.625Z,2.10
2023-01-25T17:26:57.247Z,1.99
2023-01-25T17:31:58.086Z,1.99
2023-01-25T17:36:58.838Z,1.93
2023-01-25T17:42:00.831Z,1.91
2023-01-25T17:47:01.747Z,1.91
2023-01-25T17:52:02.864Z,1.96
2023-01-25T17:57:04.890Z,1.92
2023-01-25T18:02:06.484Z,1.90
2023-01-25T18:07:07.120Z,1.93
2023-01-25T18:12:09.265Z,1.92
2023-01-25T18:17:10.200Z,1.94
2023-01-25T18:22:10.926Z,1.88
2023-01-25T18:27:20.691Z,1.95
2023-01-25T18:32:21.562Z,1.98
2023-01-25T18:37:24.156Z,2.02
2023-01-25T18:42:27.299Z,1.91
2023-01-25T18:47:28.021Z,2.01
2023-01-25T18:52:28.719Z,2.06
2023-01-25T18:57:30.776Z,2.15
2023-01-25T19:02:31.579Z,2.04
2023-01-25T19:07:33.274Z,1.98
2023-01-25T19:12:35.380Z,1.89
2023-01-25T19:17:36.125Z,2.00
2023-01-25T19:22:36.831Z,2.03
2023-01-25T19:27:38.897Z,2.01
2023-01-25T19:32:39.625Z,2.04
2023-01-25T19:37:40.262Z,1.85
2023-01-25T19:42:42.273Z,1.72
2023-01-25T19:47:42.964Z,1.79
2023-01-25T19:52:43.972Z,1.77
2023-01-25T19:57:47.363Z,1.81
2023-01-25T20:02:48.092Z,1.90
2023-01-25T20:07:49.050Z,2.02
2023-01-25T20:12:51.253Z,1.95
2023-01-25T20:17:51.980Z,1.94
2023-01-25T20:22:54.283Z,1.91
2023-01-25T20:27:56.334Z,1.90
2023-01-25T20:32:56.979Z,1.96
2023-01-25T20:37:57.641Z,1.94
2023-01-25T20:42:59.663Z,1.91
2023-01-25T20:48:00.421Z,1.93
2023-01-25T20:53:01.107Z,1.85
2023-01-25T20:58:03.159Z,1.94
2023-01-25T21:03:03.896Z,2.01
2023-01-25T21:08:05.094Z,1.90
2023-01-25T21:13:07.398Z,1.97
2023-01-25T21:18:08.093Z,1.93
2023-01-25T21:23:08.786Z,1.92
2023-01-25T21:28:10.836Z,1.77
2023-01-25T21:33:11.501Z,1.78
2023-01-25T21:38:12.221Z,1.75
2023-01-25T21:43:14.349Z,1.74
2023-01-25T21:48:35.100Z,1.70
2023-01-25T21:53:35.758Z,1.68
2023-01-25T21:58:37.774Z,1.70
2023-01-25T22:03:38.481Z,1.90
2023-01-25T22:08:40.658Z,1.79
2023-01-25T22:13:42.935Z,1.94
2023-01-25T22:18:44.574Z,1.93
2023-01-25T22:23:46.006Z,1.83
2023-01-25T22:28:50.390Z,1.60
2023-01-25T22:33:52.378Z,1.63
2023-01-25T22:38:53.506Z,1.75
2023-01-25T22:43:56.014Z,1.85
2023-01-25T22:48:56.845Z,1.72
2023-01-25T22:53:59.200Z,1.63
2023-01-25T22:59:02.056Z,1.64
2023-01-25T23:04:03.420Z,1.67
2023-01-25T23:09:07.137Z,1.76
2023-01-25T23:14:41.492Z,1.83
2023-01-25T23:19:42.522Z,1.65
2023-01-25T23:24:43.287Z,1.87
2023-01-25T23:29:45.314Z,1.76
2023-01-25T23:34:46.008Z,1.70
2023-01-25T23:39:46.689Z,1.85
2023-01-25T23:44:48.700Z,1.64
2023-01-25T23:49:49.404Z,1.53
2023-01-25T23:54:50.158Z,1.48
2023-01-25T23:59:52.187Z,1.41
